Terminal Aerodrome Forecast
Issued by NWS Amarillo, TX

Current Version | Previous Version | Text Only | Print | Product List | Glossary On
Versions: 1 2 3 4 5 6 7 8 9 10 11 12 13 14 15 16 17 18 19 20
000
FTUS44 KAMA 230700 AAA
TAFAMA
TAF AMD
KAMA 230700Z 2307/2406 23015G20KT P6SM SCT250 WS005/25045KT
     FM230900 26017KT P6SM SCT120 WS005/29045KT
     FM231400 34025G33KT P6SM BKN050
     FM231800 34020KT P6SM BKN035=

USA.gov is the U.S. government's official web portal to all federal, state and local government web resources and services.